Time;durP1;ratioP1;P1;durP2;ratioP2;P2;SDS_P1;SDS_P2;PMS_P1;PMS_P2;Temp;Humidity;BMP_temperature;BMP_pressure;BME280_temperature;BME280_humidity;BME280_pressure;Samples;Min_cycle;Max_cycle;Signal;HPM_P1;HPM_P2
2021/08/10 00:01:11;;;;;;;9.55;3.65;;;;;;;16.50;73.52;101478.19;4987301;28;20107;-81
2021/08/10 00:03:39;;;;;;;8.10;3.85;;;;;;;16.50;73.37;101480.84;4991457;28;20090;-82
2021/08/10 00:06:05;;;;;;;13.38;4.93;;;;;;;16.23;74.08;101467.56;4968800;28;20054;-82
2021/08/10 00:08:32;;;;;;;8.73;4.10;;;;;;;16.50;73.53;101475.53;4970344;28;20065;-83
2021/08/10 00:11:00;;;;;;;10.35;4.03;;;;;;;16.43;73.85;101479.53;4968203;28;20040;-82
2021/08/10 00:13:26;;;;;;;9.52;4.30;;;;;;;16.30;74.50;101469.69;4974692;28;20034;-83
2021/08/10 00:15:53;;;;;;;12.68;3.72;;;;;;;16.27;75.04;101469.91;4971215;28;20486;-84
2021/08/10 00:18:24;;;;;;;11.32;4.00;;;;;;;16.37;74.56;101469.28;4991701;28;20045;-83
2021/08/10 00:21:03;;;;;;;9.05;3.08;;;;;;;16.38;74.14;101465.69;4992819;28;20086;-82
2021/08/10 00:23:32;;;;;;;9.55;3.58;;;;;;;16.27;74.58;101467.25;4995272;28;20027;-82
2021/08/10 00:25:58;;;;;;;9.00;3.17;;;;;;;16.26;74.38;101475.34;4992145;28;20066;-82
2021/08/10 00:28:25;;;;;;;10.13;3.42;;;;;;;16.12;74.75;101463.81;4991721;28;20042;-82
2021/08/10 00:30:50;;;;;;;11.43;3.47;;;;;;;16.18;74.90;101463.38;4992974;28;20053;-82
2021/08/10 00:33:18;;;;;;;9.82;3.67;;;;;;;16.11;74.99;101466.56;4988086;28;20035;-83
2021/08/10 00:35:47;;;;;;;15.38;3.78;;;;;;;16.06;75.33;101465.06;4974277;23;20048;-83
2021/08/10 00:38:13;;;;;;;9.40;3.60;;;;;;;16.15;74.65;101468.06;4963774;29;20389;-83
2021/08/10 00:40:42;;;;;;;9.75;3.30;;;;;;;16.03;74.90;101459.94;4966175;28;20031;-83
2021/08/10 00:43:40;;;;;;;14.63;3.92;;;;;;;16.05;74.96;101465.19;4950846;29;20027;-83
2021/08/10 00:46:09;;;;;;;11.15;3.83;;;;;;;16.00;75.19;101461.94;4949411;29;20035;-83
2021/08/10 00:48:34;;;;;;;12.13;3.97;;;;;;;16.00;75.11;101459.28;4966454;29;20031;-83
2021/08/10 00:51:00;;;;;;;11.63;4.10;;;;;;;15.82;75.78;101463.03;4948898;29;20046;-84
2021/08/10 00:53:30;;;;;;;10.30;3.60;;;;;;;16.05;75.19;101454.50;4949889;29;20078;-83
2021/08/10 00:55:57;;;;;;;7.88;3.72;;;;;;;15.99;75.54;101452.22;4964432;29;20039;-84
2021/08/10 00:58:22;;;;;;;12.82;4.05;;;;;;;16.16;75.13;101449.28;4964688;29;20035;-84
2021/08/10 01:00:51;;;;;;;10.70;4.18;;;;;;;16.04;75.64;101444.78;4966217;29;20522;-83
2021/08/10 01:03:19;;;;;;;11.90;3.90;;;;;;;16.04;75.97;101456.31;4966365;28;20049;-83
2021/08/10 01:05:46;;;;;;;13.00;4.13;;;;;;;16.02;76.25;101450.22;4933952;29;20047;-83
2021/08/10 01:08:40;;;;;;;9.52;4.18;;;;;;;15.90;76.72;101446.53;4966558;29;20057;-83
2021/08/10 01:11:36;;;;;;;8.43;3.85;;;;;;;15.78;77.33;101447.34;4951982;29;20027;-83
2021/08/10 01:14:46;;;;;;;10.90;3.70;;;;;;;15.76;77.37;101451.91;4949232;29;20058;-83
2021/08/10 01:17:30;;;;;;;10.95;4.00;;;;;;;15.77;77.36;101448.28;4910163;29;20078;-83
2021/08/10 01:20:10;;;;;;;8.77;4.43;;;;;;;15.81;77.08;101447.97;4926296;29;20174;-83
2021/08/10 01:22:39;;;;;;;6.88;4.00;;;;;;;15.78;77.35;101444.69;4928466;29;20091;-82
2021/08/10 01:25:12;;;;;;;11.00;4.32;;;;;;;15.81;77.44;101444.47;4911370;29;20040;-82
2021/08/10 01:28:02;;;;;;;12.13;3.55;;;;;;;15.89;77.19;101457.28;4912138;29;20084;-82
2021/08/10 01:30:34;;;;;;;11.60;3.67;;;;;;;16.03;76.70;101464.41;4928826;29;20088;-83
2021/08/10 01:33:00;;;;;;;12.02;4.28;;;;;;;16.08;76.81;101464.97;4917088;29;20032;-83
2021/08/10 01:35:28;;;;;;;10.10;3.83;;;;;;;16.04;77.06;101464.31;4934456;29;20083;-83
2021/08/10 01:37:55;;;;;;;15.18;4.05;;;;;;;16.09;77.52;101474.69;4903652;29;20048;-84
2021/08/10 01:40:23;;;;;;;11.05;4.90;;;;;;;15.72;80.07;101469.06;4923540;29;20060;-83
2021/08/10 01:42:52;;;;;;;12.18;4.97;;;;;;;15.60;81.68;101468.03;4938706;29;20044;-83
2021/08/10 01:45:18;;;;;;;10.15;5.93;;;;;;;15.55;82.13;101479.84;4938052;29;20044;-84
2021/08/10 01:47:47;;;;;;;11.15;5.47;;;;;;;15.53;82.28;101481.75;4931421;29;20046;-83
2021/08/10 01:50:12;;;;;;;10.48;5.68;;;;;;;15.44;83.09;101483.22;4934260;29;20467;-85
2021/08/10 01:52:41;;;;;;;12.57;6.28;;;;;;;15.61;82.45;101477.75;4950693;29;20371;-85
2021/08/10 01:55:08;;;;;;;11.10;6.15;;;;;;;15.57;82.79;101477.97;4967219;28;20126;-85
2021/08/10 01:57:34;;;;;;;14.85;6.63;;;;;;;15.54;83.17;101471.97;4917526;29;20027;-85
2021/08/10 02:00:00;;;;;;;12.90;6.80;;;;;;;15.70;82.64;101474.50;4932952;29;20122;-84
2021/08/10 02:02:27;;;;;;;11.20;6.20;;;;;;;15.68;82.54;101460.41;4966517;29;20094;-84
2021/08/10 02:04:53;;;;;;;13.57;6.40;;;;;;;15.75;82.39;101463.53;4958470;28;20119;-86
2021/08/10 02:07:19;;;;;;;16.30;6.75;;;;;;;15.76;82.29;101460.78;4965877;29;20043;-86
2021/08/10 02:09:48;;;;;;;14.68;6.63;;;;;;;15.69;82.41;101457.63;4948705;29;20039;-86
2021/08/10 02:12:18;;;;;;;11.68;5.70;;;;;;;15.65;82.55;101464.13;4949000;29;20028;-85
2021/08/10 02:14:45;;;;;;;13.68;6.18;;;;;;;15.62;82.61;101466.13;4948880;29;20530;-85
2021/08/10 02:17:15;;;;;;;14.48;6.22;;;;;;;15.53;83.20;101459.59;4948057;29;20489;-86
2021/08/10 02:19:44;;;;;;;12.68;5.80;;;;;;;15.67;82.37;101464.03;4949066;29;20035;-85
2021/08/10 02:22:14;;;;;;;9.93;4.97;;;;;;;15.70;82.40;101464.66;4933392;29;20024;-86
2021/08/10 02:25:04;;;;;;;15.75;5.60;;;;;;;15.66;82.27;101476.50;4964367;29;20569;-85
2021/08/10 02:27:50;;;;;;;9.48;4.93;;;;;;;15.74;82.01;101480.47;4949238;29;20046;-85
2021/08/10 02:30:21;;;;;;;10.82;4.93;;;;;;;15.61;82.45;101480.44;4947206;29;20023;-84
2021/08/10 02:32:46;;;;;;;9.40;4.82;;;;;;;15.73;82.09;101476.97;4963874;29;20398;-84
2021/08/10 02:35:18;;;;;;;12.35;5.25;;;;;;;15.59;82.37;101475.19;4930508;29;20043;-84
2021/08/10 02:37:44;;;;;;;15.32;5.13;;;;;;;15.61;82.74;101475.94;4945932;29;20051;-84
2021/08/10 02:40:17;;;;;;;9.60;5.32;;;;;;;15.67;82.31;101474.69;4947144;29;20023;-85
2021/08/10 02:42:55;;;;;;;18.98;6.15;;;;;;;15.69;82.57;101480.78;4946885;29;20039;-84
2021/08/10 02:45:21;;;;;;;11.55;5.63;;;;;;;15.67;82.28;101480.03;4930522;29;20494;-84
2021/08/10 02:47:49;;;;;;;10.40;5.85;;;;;;;15.77;82.23;101467.81;4963612;29;20039;-85
2021/08/10 02:50:15;;;;;;;13.75;5.95;;;;;;;15.78;82.29;101469.50;4946964;29;20019;-86
2021/08/10 02:52:42;;;;;;;14.60;6.22;;;;;;;15.73;82.29;101468.97;4945947;29;20111;-86
2021/08/10 02:55:13;;;;;;;11.55;6.50;;;;;;;15.78;82.17;101460.66;4963482;29;20023;-87
2021/08/10 02:58:21;;;;;;;11.68;6.00;;;;;;;15.78;82.23;101461.50;4947138;29;20027;-85
2021/08/10 03:00:59;;;;;;;9.82;5.22;;;;;;;15.82;81.98;101459.50;4903955;29;20040;-87
2021/08/10 03:03:29;;;;;;;12.02;6.15;;;;;;;15.83;81.96;101469.19;4887533;29;20136;-86
2021/08/10 03:05:58;;;;;;;9.70;5.32;;;;;;;15.86;81.94;101465.50;4904320;29;20052;-86
2021/08/10 03:08:28;;;;;;;12.77;5.93;;;;;;;15.85;81.84;101464.63;4889017;29;20059;-86
2021/08/10 03:10:56;;;;;;;13.82;5.80;;;;;;;15.82;81.91;101462.16;4888363;29;20039;-87
2021/08/10 03:13:23;;;;;;;11.93;5.90;;;;;;;15.80;82.08;101464.06;4888348;29;20191;-87
2021/08/10 03:15:52;;;;;;;10.90;6.30;;;;;;;15.84;82.30;101462.06;4904099;29;20044;-87
2021/08/10 03:18:19;;;;;;;10.38;6.18;;;;;;;15.80;82.26;101459.59;4889253;29;20049;-86
2021/08/10 03:20:45;;;;;;;9.55;5.35;;;;;;;15.81;82.56;101457.81;4904106;29;20095;-85
2021/08/10 03:23:15;;;;;;;13.32;6.05;;;;;;;15.77;82.44;101457.13;4904047;29;20064;-85
2021/08/10 03:25:41;;;;;;;11.27;6.78;;;;;;;15.78;82.40;101461.50;4888984;29;20037;-84
2021/08/10 03:28:10;;;;;;;17.15;7.03;;;;;;;15.84;82.36;101452.28;4889443;29;20028;-87
2021/08/10 03:30:36;;;;;;;16.20;7.43;;;;;;;15.85;82.61;101451.31;4887230;29;20040;-86
2021/08/10 03:33:03;;;;;;;14.93;8.05;;;;;;;15.91;82.38;101458.03;4873026;29;20034;-88
2021/08/10 03:35:31;;;;;;;18.20;8.40;;;;;;;15.79;83.10;101457.91;4887937;29;20059;-86
2021/08/10 03:37:57;;;;;;;21.55;8.80;;;;;;;15.70;83.08;101451.34;4928551;29;20051;-87
2021/08/10 03:40:24;;;;;;;19.48;8.75;;;;;;;15.80;83.03;101456.06;4947132;29;20102;-87
2021/08/10 03:42:54;;;;;;;19.80;8.93;;;;;;;15.81;83.13;101455.97;4971078;29;20039;-87
2021/08/10 03:45:22;;;;;;;15.07;8.77;;;;;;;15.80;82.91;101456.94;4918536;29;20423;-87
2021/08/10 03:47:50;;;;;;;13.93;8.40;;;;;;;15.81;83.08;101455.97;4930126;29;20077;-85
2021/08/10 03:50:18;;;;;;;16.65;8.05;;;;;;;15.81;82.67;101463.97;4944967;29;20039;-85
2021/08/10 03:52:44;;;;;;;19.35;8.82;;;;;;;15.88;82.63;101460.91;4929894;29;20030;-85
2021/08/10 03:55:12;;;;;;;16.92;9.30;;;;;;;15.90;82.65;101467.00;4944908;29;20069;-85
2021/08/10 03:57:39;;;;;;;16.63;8.50;;;;;;;15.86;82.59;101460.16;4931471;29;20048;-85
2021/08/10 04:00:07;;;;;;;18.75;8.60;;;;;;;15.90;82.82;101464.34;4946547;29;20051;-84
2021/08/10 04:02:33;;;;;;;19.45;8.90;;;;;;;15.90;82.52;101467.00;4961880;29;20047;-85
2021/08/10 04:05:00;;;;;;;16.63;8.45;;;;;;;15.82;82.90;101462.16;4961647;29;20023;-86
2021/08/10 04:07:27;;;;;;;18.17;8.85;;;;;;;15.76;83.23;101462.56;4959827;29;20063;-86
2021/08/10 04:09:54;;;;;;;23.73;8.98;;;;;;;15.77;83.06;101459.81;4944441;29;20035;-86
2021/08/10 04:12:21;;;;;;;18.92;8.73;;;;;;;15.79;82.94;101460.56;4944503;29;20032;-86
2021/08/10 04:14:47;;;;;;;22.88;9.18;;;;;;;15.63;83.75;101462.50;4945429;29;20061;-85
2021/08/10 04:17:13;;;;;;;18.60;9.50;;;;;;;15.70;83.36;101469.16;4947673;29;20046;-84
2021/08/10 04:19:45;;;;;;;15.10;8.98;;;;;;;15.71;83.19;101465.53;4947402;29;20059;-85
2021/08/10 04:22:13;;;;;;;21.00;8.85;;;;;;;15.66;83.56;101470.31;4965327;29;20122;-84
2021/08/10 04:24:40;;;;;;;19.65;9.52;;;;;;;15.75;83.48;101468.88;4965286;29;20019;-83
2021/08/10 04:27:05;;;;;;;19.23;9.77;;;;;;;15.73;83.59;101474.31;4947140;29;20064;-83
2021/08/10 04:29:31;;;;;;;18.77;9.75;;;;;;;15.78;83.47;101479.34;4963912;29;20043;-84
2021/08/10 04:31:57;;;;;;;21.25;10.20;;;;;;;15.63;84.01;101470.50;4947106;29;20103;-83
2021/08/10 04:34:26;;;;;;;19.23;9.43;;;;;;;15.74;83.50;101484.00;4980638;23;20131;-85
2021/08/10 04:36:51;;;;;;;19.13;9.85;;;;;;;15.69;83.84;101470.09;4946178;29;20497;-84
2021/08/10 04:39:17;;;;;;;19.13;9.15;;;;;;;15.83;82.97;101474.53;4963611;29;20125;-84
2021/08/10 04:41:42;;;;;;;18.10;9.63;;;;;;;15.63;83.65;101481.16;4964009;29;20019;-84
2021/08/10 04:44:10;;;;;;;19.77;9.50;;;;;;;15.63;83.50;101479.38;4946529;29;20038;-84
2021/08/10 04:46:35;;;;;;;23.00;10.15;;;;;;;15.53;84.02;101484.44;4946691;29;20458;-84
2021/08/10 04:49:05;;;;;;;25.45;9.45;;;;;;;15.61;83.76;101478.59;4963953;29;20085;-84
2021/08/10 04:51:32;;;;;;;19.70;9.60;;;;;;;15.63;83.48;101484.69;4963494;29;20035;-84
2021/08/10 04:53:57;;;;;;;16.50;9.25;;;;;;;15.68;83.39;101477.28;4963688;29;20042;-84
2021/08/10 04:56:23;;;;;;;18.25;9.88;;;;;;;15.70;83.31;101478.00;4946485;29;20475;-84
2021/08/10 04:58:50;;;;;;;17.48;10.30;;;;;;;15.73;83.30;101470.78;4945979;29;20032;-84
2021/08/10 05:01:15;;;;;;;22.77;9.60;;;;;;;15.77;83.47;101474.94;4964485;29;20031;-83
2021/08/10 05:03:42;;;;;;;17.92;9.65;;;;;;;15.85;83.40;101477.09;4946967;29;20035;-84
2021/08/10 05:06:07;;;;;;;26.13;10.05;;;;;;;15.88;83.19;101474.22;4964508;29;20042;-84
2021/08/10 05:08:33;;;;;;;15.20;8.73;;;;;;;15.91;83.22;101474.03;4964220;29;20031;-84
2021/08/10 05:11:01;;;;;;;18.80;9.55;;;;;;;16.18;82.57;101476.72;4963876;29;20039;-83
2021/08/10 05:13:28;;;;;;;20.08;9.55;;;;;;;16.27;82.16;101469.91;4964523;29;20380;-84
2021/08/10 05:15:53;;;;;;;17.42;9.00;;;;;;;16.29;81.98;101475.16;4963385;29;20035;-83
2021/08/10 05:18:20;;;;;;;17.42;9.15;;;;;;;16.31;82.12;101473.25;4950039;29;20316;-85
2021/08/10 05:20:45;;;;;;;20.92;9.20;;;;;;;16.39;81.56;101468.25;4963971;29;20141;-85
2021/08/10 05:23:11;;;;;;;20.23;9.15;;;;;;;16.39;81.34;101481.59;4958060;29;20027;-84
2021/08/10 05:25:36;;;;;;;19.38;8.77;;;;;;;16.55;81.10;101493.91;4956897;28;20036;-84
2021/08/10 05:28:02;;;;;;;18.83;8.95;;;;;;;16.48;81.28;101488.09;4956449;29;20031;-86
2021/08/10 05:30:27;;;;;;;18.38;8.98;;;;;;;16.36;81.54;101492.47;4957022;29;20027;-85
2021/08/10 05:32:52;;;;;;;17.88;9.45;;;;;;;16.51;81.32;101503.06;4956659;29;20078;-84
2021/08/10 05:35:18;;;;;;;21.60;10.57;;;;;;;16.55;81.26;101497.41;4939660;29;20059;-85
2021/08/10 05:37:43;;;;;;;16.85;9.07;;;;;;;16.49;81.80;101496.97;4956825;29;20513;-84
2021/08/10 05:40:09;;;;;;;18.48;9.32;;;;;;;16.62;81.11;101502.31;4939562;29;20043;-84
2021/08/10 05:42:35;;;;;;;18.17;9.27;;;;;;;16.67;80.84;101498.38;4956683;29;20028;-84
2021/08/10 05:45:00;;;;;;;17.63;8.93;;;;;;;16.56;81.00;101509.81;4956902;29;20074;-84
2021/08/10 05:47:25;;;;;;;18.30;9.27;;;;;;;16.68;80.60;101501.91;4940409;29;20027;-86
2021/08/10 05:49:51;;;;;;;16.60;8.73;;;;;;;16.93;79.88;101508.22;4969836;29;20027;-83
2021/08/10 05:52:16;;;;;;;16.38;8.52;;;;;;;17.01;79.51;101513.00;4961595;29;20358;-85
2021/08/10 05:54:42;;;;;;;16.40;8.77;;;;;;;17.04;79.54;101511.00;4956824;29;20045;-85
2021/08/10 05:57:07;;;;;;;20.63;8.65;;;;;;;17.01;79.71;101505.88;4956403;29;20028;-85
2021/08/10 05:59:33;;;;;;;18.85;9.05;;;;;;;16.93;79.85;101508.22;4956266;29;20031;-85
2021/08/10 06:01:58;;;;;;;18.70;8.63;;;;;;;16.87;79.99;101512.16;4956259;29;20122;-83
2021/08/10 06:04:24;;;;;;;22.83;9.52;;;;;;;16.81;80.24;101504.59;4956523;29;20046;-86
2021/08/10 06:06:49;;;;;;;15.63;8.90;;;;;;;16.87;80.34;101516.66;4956468;29;20027;-83
2021/08/10 06:09:14;;;;;;;18.80;8.48;;;;;;;16.79;80.40;101517.19;4939079;29;20498;-83
2021/08/10 06:11:40;;;;;;;20.00;8.75;;;;;;;16.78;80.31;101516.34;4956175;29;20031;-83
2021/08/10 06:14:05;;;;;;;22.55;8.82;;;;;;;16.88;80.13;101529.91;4956159;29;20039;-83
2021/08/10 06:16:31;;;;;;;16.38;7.72;;;;;;;17.03;79.52;101528.00;4955738;29;20058;-83
2021/08/10 06:18:56;;;;;;;15.03;8.53;;;;;;;17.24;79.38;101527.47;4955954;29;20118;-84
2021/08/10 06:21:22;;;;;;;14.00;8.60;;;;;;;17.31;78.68;101517.19;4960507;29;20042;-84
2021/08/10 06:23:47;;;;;;;15.30;8.75;;;;;;;17.35;78.41;101515.16;4962385;29;20041;-84
2021/08/10 06:26:13;;;;;;;19.15;8.23;;;;;;;17.43;78.24;101519.00;4960853;29;20035;-84
2021/08/10 06:28:38;;;;;;;22.50;8.85;;;;;;;17.46;78.15;101528.63;4961636;29;20381;-83
2021/08/10 06:31:04;;;;;;;18.17;8.57;;;;;;;17.59;77.78;101520.56;4960534;29;20035;-84
2021/08/10 06:33:30;;;;;;;17.50;8.82;;;;;;;17.46;78.26;101517.94;4946954;29;20023;-84
2021/08/10 06:35:56;;;;;;;14.27;8.55;;;;;;;17.60;77.39;101524.09;4963374;29;20055;-83
2021/08/10 06:38:22;;;;;;;16.00;9.25;;;;;;;17.30;78.47;101523.53;4957737;28;20042;-86
2021/08/10 06:40:48;;;;;;;17.85;9.05;;;;;;;17.42;78.92;101530.66;4955854;29;20047;-83
2021/08/10 06:43:14;;;;;;;17.63;9.10;;;;;;;17.54;78.77;101528.91;4955577;29;20101;-83
2021/08/10 06:45:40;;;;;;;17.35;8.75;;;;;;;17.67;78.22;101525.34;4955320;29;20034;-85
2021/08/10 06:48:06;;;;;;;17.10;8.95;;;;;;;17.89;77.62;101523.78;4938164;29;20122;-85
2021/08/10 06:50:31;;;;;;;20.05;8.40;;;;;;;17.91;77.35;101520.03;4955209;29;20023;-85
2021/08/10 06:52:57;;;;;;;15.77;8.32;;;;;;;18.12;76.86;101523.94;4938340;29;20114;-86
2021/08/10 06:55:22;;;;;;;15.73;7.22;;;;;;;18.12;76.55;101521.28;4938348;29;20035;-83
2021/08/10 06:57:47;;;;;;;15.68;7.75;;;;;;;18.32;76.14;101527.81;4938310;29;20019;-83
2021/08/10 07:00:13;;;;;;;15.07;7.53;;;;;;;18.12;75.93;101526.63;4938174;29;20475;-84
2021/08/10 07:02:39;;;;;;;15.43;7.13;;;;;;;18.22;75.32;101526.78;4937612;29;20047;-84
2021/08/10 07:05:04;;;;;;;18.40;7.45;;;;;;;18.30;75.92;101529.72;4955299;29;20023;-83
2021/08/10 07:07:30;;;;;;;14.32;6.80;;;;;;;18.45;75.30;101534.91;4955321;29;20478;-83
2021/08/10 07:09:55;;;;;;;16.27;6.70;;;;;;;18.58;74.01;101529.44;4955191;29;20110;-85
2021/08/10 07:12:21;;;;;;;16.20;6.10;;;;;;;18.34;74.52;101533.88;4955595;29;20529;-83
2021/08/10 07:14:46;;;;;;;10.15;5.30;;;;;;;18.70;72.77;101533.03;4955511;29;20027;-83
2021/08/10 07:17:14;;;;;;;14.63;6.22;;;;;;;18.89;72.19;101535.16;4955002;29;20098;-83
2021/08/10 07:19:40;;;;;;;16.02;5.93;;;;;;;18.95;72.55;101534.66;4955227;29;20039;-86
2021/08/10 07:22:05;;;;;;;11.48;6.07;;;;;;;19.07;71.43;101534.66;4955205;29;20031;-85
2021/08/10 07:24:31;;;;;;;12.25;5.90;;;;;;;19.24;70.66;101544.94;4955321;29;20031;-85
2021/08/10 07:26:57;;;;;;;11.43;5.18;;;;;;;19.72;70.01;101532.22;4955426;29;20028;-84
2021/08/10 07:29:22;;;;;;;12.77;5.25;;;;;;;19.66;68.72;101532.72;4957808;29;20027;-84
2021/08/10 07:31:47;;;;;;;13.52;5.35;;;;;;;19.99;68.26;101547.03;4958912;29;20027;-85
2021/08/10 07:34:16;;;;;;;11.40;4.97;;;;;;;19.67;68.59;101531.75;4939777;29;20066;-83
2021/08/10 07:36:41;;;;;;;10.45;4.70;;;;;;;19.51;68.38;101549.09;4955148;29;20043;-86
2021/08/10 07:39:07;;;;;;;9.65;4.53;;;;;;;19.35;66.78;101541.41;4937477;29;20023;-83
2021/08/10 07:41:32;;;;;;;11.38;4.72;;;;;;;19.18;68.47;101542.75;4937483;29;20364;-82
2021/08/10 07:43:58;;;;;;;12.80;4.93;;;;;;;19.44;67.78;101539.81;4954807;29;20023;-85
2021/08/10 07:46:23;;;;;;;8.18;4.40;;;;;;;18.97;67.78;101553.31;4954695;29;20434;-84
2021/08/10 07:48:50;;;;;;;11.50;4.88;;;;;;;18.78;69.00;101550.22;4954413;28;20430;-84
2021/08/10 07:51:16;;;;;;;13.45;4.80;;;;;;;18.82;69.07;101550.84;4958572;29;20030;-83
2021/08/10 07:53:42;;;;;;;12.88;4.57;;;;;;;18.80;68.94;101547.41;4958408;29;20027;-83
2021/08/10 07:56:07;;;;;;;12.15;5.15;;;;;;;18.71;69.47;101549.00;4958362;29;20027;-83
2021/08/10 07:58:33;;;;;;;10.95;4.88;;;;;;;18.27;70.77;101546.03;4958516;29;20032;-83
2021/08/10 08:00:58;;;;;;;10.38;4.75;;;;;;;18.26;70.91;101549.69;4958431;29;20027;-82
2021/08/10 08:03:24;;;;;;;10.77;4.78;;;;;;;18.26;70.51;101545.16;4958360;29;20031;-83
2021/08/10 08:05:50;;;;;;;13.05;5.25;;;;;;;18.30;70.49;101545.81;4941095;29;20032;-82
2021/08/10 08:08:17;;;;;;;11.25;4.50;;;;;;;18.26;70.13;101547.00;4958395;29;20035;-83
2021/08/10 08:10:43;;;;;;;9.30;4.50;;;;;;;18.32;69.76;101557.25;4958576;29;20030;-83
2021/08/10 08:13:11;;;;;;;10.85;4.57;;;;;;;18.25;69.73;101550.63;4958310;29;20023;-84
2021/08/10 08:15:37;;;;;;;12.77;4.88;;;;;;;18.75;68.86;101555.81;4958303;29;20024;-83
2021/08/10 08:18:02;;;;;;;11.07;4.65;;;;;;;18.80;68.13;101550.97;4958244;29;20030;-83
2021/08/10 08:20:28;;;;;;;10.88;5.10;;;;;;;18.89;68.07;101552.06;4958347;29;20043;-84
2021/08/10 08:22:53;;;;;;;10.15;4.88;;;;;;;19.08;68.62;101557.84;4958153;29;20028;-83
2021/08/10 08:25:18;;;;;;;9.85;4.68;;;;;;;19.16;68.52;101558.09;4958053;29;20485;-84
2021/08/10 08:27:44;;;;;;;9.88;5.00;;;;;;;19.45;68.16;101549.59;4958072;29;20463;-83
2021/08/10 08:30:11;;;;;;;13.40;5.03;;;;;;;19.52;67.44;101555.28;4958212;29;20114;-83
2021/08/10 08:32:36;;;;;;;12.32;4.88;;;;;;;20.15;66.30;101548.50;4957880;29;20030;-84
2021/08/10 08:35:02;;;;;;;14.85;6.70;;;;;;;20.30;67.30;101554.44;4965856;23;20055;-84
2021/08/10 08:37:27;;;;;;;12.57;6.32;;;;;;;20.30;67.83;101554.44;4941308;29;20061;-84
2021/08/10 08:39:53;;;;;;;12.68;6.25;;;;;;;19.83;68.86;101551.97;4958623;29;20030;-84
2021/08/10 08:42:19;;;;;;;12.52;6.20;;;;;;;19.28;70.74;101553.63;4961547;29;20366;-83
2021/08/10 08:44:44;;;;;;;13.05;6.50;;;;;;;19.68;69.21;101565.66;4948364;29;20028;-84
2021/08/10 08:47:10;;;;;;;15.43;6.40;;;;;;;19.58;69.20;101568.22;4958040;29;20039;-82
2021/08/10 08:49:36;;;;;;;11.77;6.70;;;;;;;19.01;71.07;101569.03;4940343;29;20055;-84
2021/08/10 08:52:04;;;;;;;12.27;6.40;;;;;;;19.19;70.72;101565.06;4940775;29;20034;-86
2021/08/10 08:54:30;;;;;;;11.77;5.97;;;;;;;19.30;69.05;101571.28;4957912;29;20028;-84
2021/08/10 08:56:55;;;;;;;13.38;5.68;;;;;;;19.55;68.55;101565.78;4940745;29;20028;-86
2021/08/10 08:59:21;;;;;;;11.57;5.90;;;;;;;19.75;68.30;101560.66;4957648;29;20078;-86
2021/08/10 09:01:49;;;;;;;11.52;6.00;;;;;;;20.60;66.78;101560.88;4957693;28;20055;-85
2021/08/10 09:04:14;;;;;;;9.30;5.38;;;;;;;20.81;65.82;101559.16;4940473;29;20490;-84
2021/08/10 09:06:40;;;;;;;11.23;5.72;;;;;;;20.93;65.21;101562.69;4957379;29;20035;-84
2021/08/10 09:09:21;;;;;;;11.50;5.60;;;;;;;20.39;66.60;101566.22;4940099;29;20027;-85
2021/08/10 09:11:51;;;;;;;10.70;5.47;;;;;;;20.44;66.92;101566.72;4939767;29;20080;-84
2021/08/10 09:14:16;;;;;;;9.38;5.72;;;;;;;20.12;67.46;101576.47;4957275;29;20367;-84
2021/08/10 09:16:59;;;;;;;8.00;5.05;;;;;;;20.03;67.82;101579.91;4956716;29;20039;-84
2021/08/10 09:19:37;;;;;;;;;;;;;;;20.07;68.25;101569.78;4956875;29;20367;-84
2021/08/10 09:22:22;;;;;;;10.18;5.30;;;;;;;20.73;65.78;101576.81;4956816;29;20074;-84
2021/08/10 09:24:54;;;;;;;9.18;4.90;;;;;;;21.47;60.69;101575.97;4956781;29;20374;-84
2021/08/10 09:27:25;;;;;;;13.20;4.72;;;;;;;21.37;61.75;101575.94;4956796;29;20039;-85
2021/08/10 09:29:51;;;;;;;12.75;4.93;;;;;;;21.08;61.81;101572.09;4955553;29;20211;-84
2021/08/10 09:32:16;;;;;;;9.52;4.28;;;;;;;21.15;60.72;101575.09;4923316;29;20055;-83
2021/08/10 09:34:42;;;;;;;10.65;3.97;;;;;;;21.65;58.70;101582.38;4955805;29;20410;-83
2021/08/10 09:37:15;;;;;;;9.52;4.70;;;;;;;21.59;57.68;101587.50;4939001;29;20392;-84
2021/08/10 09:39:40;;;;;;;10.88;4.53;;;;;;;21.56;59.33;101582.38;4956544;29;20030;-84
2021/08/10 09:42:12;;;;;;;10.95;4.55;;;;;;;22.35;56.66;101585.25;4956432;29;20404;-86
2021/08/10 09:44:56;;;;;;;10.68;4.22;;;;;;;23.50;53.60;101589.91;4956599;29;20470;-85
2021/08/10 09:47:40;;;;;;;9.63;3.90;;;;;;;22.74;54.68;101598.72;4958516;29;20028;-84
2021/08/10 09:50:19;;;;;;;7.70;3.88;;;;;;;24.11;51.43;101587.56;4959852;29;20042;-85
2021/08/10 09:52:45;;;;;;;10.30;4.00;;;;;;;24.11;50.67;101594.81;4943530;29;20041;-84
2021/08/10 09:55:15;;;;;;;9.38;3.95;;;;;;;24.01;50.11;101606.53;4958393;29;20209;-84
2021/08/10 09:57:43;;;;;;;7.18;3.75;;;;;;;24.10;48.83;101596.63;4939023;29;20028;-84
2021/08/10 10:00:10;;;;;;;6.57;3.85;;;;;;;23.27;51.72;101598.31;4939259;29;20031;-84
2021/08/10 10:02:36;;;;;;;6.13;3.53;;;;;;;22.57;52.10;101607.50;4955931;29;20448;-85
2021/08/10 10:05:02;;;;;;;7.78;3.70;;;;;;;22.32;53.39;101602.53;4938291;29;20039;-84
2021/08/10 10:07:27;;;;;;;9.82;3.75;;;;;;;24.04;48.17;101596.44;4955446;29;20077;-84
2021/08/10 10:09:53;;;;;;;5.80;3.60;;;;;;;23.62;49.16;101595.94;4956048;29;20027;-85
2021/08/10 10:12:26;;;;;;;8.05;3.88;;;;;;;22.91;50.83;101601.69;4955305;28;20034;-83
2021/08/10 10:14:51;;;;;;;6.82;3.50;;;;;;;22.32;52.32;101599.00;4938626;29;20019;-86
2021/08/10 10:17:19;;;;;;;6.85;3.42;;;;;;;22.31;52.37;101591.91;4923470;29;20031;-85
2021/08/10 10:19:45;;;;;;;6.10;3.30;;;;;;;23.55;50.01;101608.34;4922727;29;20043;-84
2021/08/10 10:22:14;;;;;;;5.82;3.45;;;;;;;24.67;47.64;101597.34;4938205;29;20050;-84
2021/08/10 10:24:55;;;;;;;6.95;3.42;;;;;;;24.43;46.91;101604.25;4955431;29;20027;-83
2021/08/10 10:27:20;;;;;;;6.93;3.55;;;;;;;24.18;47.69;101597.78;4939837;29;20034;-84
2021/08/10 10:29:47;;;;;;;6.70;3.40;;;;;;;22.63;51.58;101597.03;4955674;29;20035;-83
2021/08/10 10:32:12;;;;;;;6.28;3.80;;;;;;;22.56;51.60;101600.41;4955578;29;20028;-86
2021/08/10 10:34:37;;;;;;;7.05;3.50;;;;;;;22.33;53.03;101606.94;4955382;29;20201;-84
2021/08/10 10:37:04;;;;;;;5.63;3.88;;;;;;;21.58;55.02;101599.22;4938416;29;20035;-85
2021/08/10 10:39:34;;;;;;;7.80;4.38;;;;;;;21.02;58.04;101612.97;4956115;29;20028;-86
2021/08/10 10:42:05;;;;;;;6.78;3.70;;;;;;;20.58;57.95;101604.97;4923798;29;20125;-84
2021/08/10 10:44:51;;;;;;;13.45;4.07;;;;;;;20.94;57.40;101610.06;4929759;29;20026;-84
2021/08/10 10:47:27;;;;;;;6.30;3.60;;;;;;;21.16;56.73;101595.66;4964772;29;20110;-84
2021/08/10 10:49:56;;;;;;;8.02;3.78;;;;;;;22.60;52.91;101626.97;4956217;29;20483;-82
2021/08/10 10:52:25;;;;;;;7.05;3.70;;;;;;;22.91;52.15;101609.78;4948237;29;20046;-84
2021/08/10 10:54:52;;;;;;;7.18;4.00;;;;;;;22.67;52.73;101608.41;4936367;29;20036;-84
2021/08/10 10:57:32;;;;;;;10.52;4.50;;;;;;;22.26;54.81;101611.19;4903617;29;20114;-84
2021/08/10 11:00:04;;;;;;;12.27;4.45;;;;;;;22.44;54.32;101614.03;4935608;29;20118;-81
2021/08/10 11:02:29;;;;;;;8.63;4.47;;;;;;;22.39;55.07;101602.81;4936224;29;20090;-84
2021/08/10 11:05:07;;;;;;;9.90;4.50;;;;;;;22.53;54.46;101604.22;4936035;29;20043;-84
2021/08/10 11:07:46;;;;;;;6.55;3.83;;;;;;;22.47;53.80;101611.06;4936022;29;20083;-83
2021/08/10 11:10:37;;;;;;;10.13;4.38;;;;;;;23.10;51.89;101608.88;4935770;29;20028;-82
2021/08/10 11:13:06;;;;;;;10.73;4.30;;;;;;;22.96;50.89;101609.34;4936174;29;20036;-84
2021/08/10 11:15:43;;;;;;;8.15;3.92;;;;;;;22.61;50.93;101608.94;4936370;29;20027;-84
2021/08/10 11:18:09;;;;;;;7.20;4.30;;;;;;;22.75;51.29;101613.06;4936904;29;20110;-85
2021/08/10 11:20:38;;;;;;;9.23;4.68;;;;;;;22.58;51.62;101598.41;4904317;29;20098;-84
2021/08/10 11:23:26;;;;;;;7.40;3.80;;;;;;;23.11;49.12;101609.75;4919423;29;20035;-83
2021/08/10 11:25:53;;;;;;;9.73;4.10;;;;;;;22.89;49.25;101612.59;4935342;29;20032;-84